Elegance — PBGJ — position and weather

sailwx.info

Track history (hours):
 
Tides and Currents Weather Stations Pressure Air Temp Water Temp Dewpoint Dewpoint Depression Visibility Wind Speed Wind Dir Waves Ship Positions

Elegance

Last reported at 2017-Nov-17 13:07 UTC. Time now 2017-Nov-18 23:51 UTC.
Position N 20°12' W 070°29'.

Type: Cargo ship. MMSI: 244317000.

Date/timePositionNaut miles runAvg speedWind from/ knotsBaromVisibWave heightAir tempDewpointWater temp
2017-Nov-17 13:07N 20°12' W 070°29'218.6
2017-Nov-17 13:00N 20°11' W 070°27'918.2
2017-Nov-17 12:30N 20°07' W 070°18'918.5
2017-Nov-17 12:01N 20°02' W 070°10'45011.2
2017-Nov-15 19:44N 17°14' W 062°49'417.0
2017-Nov-15 19:29N 17°15' W 062°45'2 0.2
2017-Nov-15 11:17N 17°17' W 062°43'1 4.8
2017-Nov-15 11:00N 17°16' W 062°43'2113.4
2017-Nov-15 09:26N 16°56' W 062°37'714.6
2017-Nov-15 08:59N 16°50' W 062°34'714.2
2017-Nov-15 08:31N 16°44' W 062°31'714.3
2017-Nov-15 08:01N 16°37' W 062°28'714.3
2017-Nov-15 07:31N 16°31' W 062°24'714.0
2017-Nov-15 07:00N 16°25' W 062°21'815.1
2017-Nov-15 06:30N 16°18' W 062°18'714.5
2017-Nov-15 06:00N 16°11' W 062°16'11313.6
2017-Nov-14 21:39N 14°36' W 061°12'214.2
2017-Nov-14 21:30N 14°35' W 061°09'5 9.7
2017-Nov-14 21:00N 14°36' W 061°04'0 0.2
2017-Nov-14 20:30N 14°36' W 061°04'0 0.0
2017-Nov-14 20:00N 14°36' W 061°04'0 0.0
2017-Nov-14 19:30N 14°36' W 061°04'0 0.0
2017-Nov-14 19:00N 14°36' W 061°04'0 0.0
2017-Nov-14 18:30N 14°36' W 061°04'0 0.0
2017-Nov-14 18:00N 14°36' W 061°04'0 0.0
2017-Nov-14 17:27N 14°36' W 061°04'0 0.0
2017-Nov-14 16:57N 14°36' W 061°04'0 0.0
2017-Nov-14 16:27N 14°36' W 061°04'0 0.0
2017-Nov-14 15:57N 14°36' W 061°04'0 0.0
2017-Nov-14 15:30N 14°36' W 061°04'0 0.0
2017-Nov-14 15:00N 14°36' W 061°04'0 0.0
2017-Nov-14 14:30N 14°36' W 061°04'0 0.0
2017-Nov-14 14:00N 14°36' W 061°04'0 0.0
2017-Nov-14 13:30N 14°36' W 061°04'0 0.0
2017-Nov-14 13:00N 14°36' W 061°04'0 0.0
2017-Nov-14 12:30N 14°36' W 061°04'0 0.0
2017-Nov-14 11:57N 14°36' W 061°04'0 0.1
2017-Nov-14 11:30N 14°36' W 061°04'1 2.7
2017-Nov-14 11:00N 14°35' W 061°05'4 8.6
2017-Nov-14 10:30N 14°32' W 061°09'4 8.8
2017-Nov-14 10:00N 14°28' W 061°07'5 9.3
2017-Nov-14 09:30N 14°25' W 061°04'5 9.2
2017-Nov-14 09:00N 14°22' W 061°01'5 9.2
2017-Nov-14 08:30N 14°18' W 060°57'5 9.5
2017-Nov-14 08:00N 14°15' W 060°54'5 9.8
2017-Nov-14 07:30N 14°12' W 060°50'38 1.2
2017-Nov-13 00:53N 13°35' W 060°56'26 3.3
2017-Nov-12 17:00N 14°01' W 060°60'0 0.1
2017-Nov-12 11:52N 14°01' W 060°60'3 8.8
2017-Nov-12 11:31N 14°03' W 061°03'714.5
2017-Nov-12 11:00N 14°09' W 061°06'714.9
2017-Nov-12 10:30N 14°15' W 061°10'815.1
2017-Nov-12 10:00N 14°22' W 061°14'815.0
2017-Nov-12 09:30N 14°28' W 061°18'815.4
2017-Nov-12 09:00N 14°35' W 061°22'815.2
2017-Nov-12 08:30N 14°42' W 061°26'14814.1
2017-Nov-11 22:01N 17°07' W 061°51'0 4.7
2017-Nov-11 22:00N 17°07' W 061°51'0 0.9
2017-Nov-11 21:29N 17°07' W 061°51'0 0.0
2017-Nov-11 20:59N 17°07' W 061°51'0 0.0
2017-Nov-11 20:29N 17°07' W 061°51'0 0.0
2017-Nov-11 19:59N 17°07' W 061°51'0 0.0
2017-Nov-11 19:29N 17°07' W 061°51'0 0.0
2017-Nov-11 18:59N 17°07' W 061°51'0 0.0
2017-Nov-11 18:29N 17°07' W 061°51'0 0.0
2017-Nov-11 17:59N 17°07' W 061°51'0 0.0
2017-Nov-11 17:29N 17°07' W 061°51'0 0.0
2017-Nov-11 16:59N 17°07' W 061°51'0 0.0
2017-Nov-11 16:23N 17°07' W 061°51'0 0.0
2017-Nov-11 15:59N 17°07' W 061°51'0 0.0
2017-Nov-11 15:29N 17°07' W 061°51'0 0.0
2017-Nov-11 14:59N 17°07' W 061°51'0 0.0
2017-Nov-11 14:29N 17°07' W 061°51'0 0.0
2017-Nov-11 13:59N 17°07' W 061°51'0 0.5
2017-Nov-11 13:30N 17°07' W 061°51'5 9.4
2017-Nov-11 13:00N 17°09' W 061°56'815.8
2017-Nov-11 12:30N 17°14' W 062°03'83618.6
2017-Nov-09 15:36N 24°40' W 074°40'218.6
2017-Nov-09 15:30N 24°41' W 074°42'918.6
2017-Nov-09 15:00N 24°45' W 074°51'1218.6
2017-Nov-09 14:23N 24°51' W 075°02'25018.3
2017-Nov-09 00:44N 26°08' W 079°26'416.1
2017-Nov-09 00:28N 26°08' W 079°31'919.0
2017-Nov-09 00:01N 26°08' W 079°41'918.8
2017-Nov-08 23:30N 26°07' W 079°51'918.4
2017-Nov-08 23:00N 26°06' W 080°01'510.0
2017-Nov-08 22:30N 26°06' W 080°07'0 0.7
2017-Nov-08 22:00N 26°05' W 080°07'0 0.0
2017-Nov-08 21:30N 26°05' W 080°07'0 0.0
2017-Nov-08 20:51N 26°05' W 080°07'0 0.0
2017-Nov-08 20:30N 26°05' W 080°07'0 0.0
2017-Nov-08 20:00N 26°05' W 080°07'0 0.0
2017-Nov-08 19:30N 26°05' W 080°07'0 0.0
2017-Nov-08 19:00N 26°05' W 080°07'0 0.0
2017-Nov-08 18:30N 26°05' W 080°07'0 0.0
2017-Nov-08 18:00N 26°05' W 080°07'0 0.0
2017-Nov-08 17:27N 26°05' W 080°07'0 0.0
2017-Nov-08 17:00N 26°05' W 080°07'0 0.0
2017-Nov-08 16:30N 26°05' W 080°07'0 0.0
2017-Nov-08 15:57N 26°05' W 080°07'0 0.0
2017-Nov-08 15:30N 26°05' W 080°07'0 0.0
2017-Nov-08 14:54N 26°05' W 080°07'0 0.0
2017-Nov-08 14:30N 26°05' W 080°07'0 0.0
2017-Nov-08 14:00N 26°05' W 080°07'0 0.0
2017-Nov-08 13:30N 26°05' W 080°07'0 0.0
2017-Nov-08 13:00N 26°05' W 080°07'0 0.0
2017-Nov-08 12:30N 26°05' W 080°07'0 0.0
2017-Nov-08 12:00N 26°05' W 080°07'0 0.0
2017-Nov-08 11:30N 26°05' W 080°07'1 2.6
2017-Nov-08 11:00N 26°06' W 080°06'611.4
2017-Nov-08 10:31N 26°05' W 079°59'1019.4
2017-Nov-08 10:00N 26°01' W 079°50'1019.7
2017-Nov-08 09:31N 25°56' W 079°40'1120.9
2017-Nov-08 09:00N 25°45' W 079°38'1020.9
2017-Nov-08 08:30N 25°35' W 079°36'1020.6
2017-Nov-08 08:00N 25°25' W 079°34'  
Track history (hours):
 
Tides and Currents Weather Stations Pressure Air Temp Water Temp Dewpoint Dewpoint Depression Visibility Wind Speed Wind Dir Waves Ship Positions

Elegance

Last reported at 2017-Nov-17 13:07 UTC. Time now 2017-Nov-18 23:51 UTC.
Position N 20°12' W 070°29'.

Type: Cargo ship. MMSI: 244317000.

Date/timePositionNaut miles runAvg speedWind from/ knotsBaromVisibWave heightAir tempDewpointWater temp
2017-Nov-17 13:07N 20°12' W 070°29'218.6
2017-Nov-17 13:00N 20°11' W 070°27'918.2
2017-Nov-17 12:30N 20°07' W 070°18'918.5
2017-Nov-17 12:01N 20°02' W 070°10'45011.2
2017-Nov-15 19:44N 17°14' W 062°49'417.0
2017-Nov-15 19:29N 17°15' W 062°45'2 0.2
2017-Nov-15 11:17N 17°17' W 062°43'1 4.8
2017-Nov-15 11:00N 17°16' W 062°43'2113.4
2017-Nov-15 09:26N 16°56' W 062°37'714.6
2017-Nov-15 08:59N 16°50' W 062°34'714.2
2017-Nov-15 08:31N 16°44' W 062°31'714.3
2017-Nov-15 08:01N 16°37' W 062°28'714.3
2017-Nov-15 07:31N 16°31' W 062°24'714.0
2017-Nov-15 07:00N 16°25' W 062°21'815.1
2017-Nov-15 06:30N 16°18' W 062°18'714.5
2017-Nov-15 06:00N 16°11' W 062°16'11313.6
2017-Nov-14 21:39N 14°36' W 061°12'214.2
2017-Nov-14 21:30N 14°35' W 061°09'5 9.7
2017-Nov-14 21:00N 14°36' W 061°04'0 0.2
2017-Nov-14 20:30N 14°36' W 061°04'0 0.0
2017-Nov-14 20:00N 14°36' W 061°04'0 0.0
2017-Nov-14 19:30N 14°36' W 061°04'0 0.0
2017-Nov-14 19:00N 14°36' W 061°04'0 0.0
2017-Nov-14 18:30N 14°36' W 061°04'0 0.0
2017-Nov-14 18:00N 14°36' W 061°04'0 0.0
2017-Nov-14 17:27N 14°36' W 061°04'0 0.0
2017-Nov-14 16:57N 14°36' W 061°04'0 0.0
2017-Nov-14 16:27N 14°36' W 061°04'0 0.0
2017-Nov-14 15:57N 14°36' W 061°04'0 0.0
2017-Nov-14 15:30N 14°36' W 061°04'0 0.0
2017-Nov-14 15:00N 14°36' W 061°04'0 0.0
2017-Nov-14 14:30N 14°36' W 061°04'0 0.0
2017-Nov-14 14:00N 14°36' W 061°04'0 0.0
2017-Nov-14 13:30N 14°36' W 061°04'0 0.0
2017-Nov-14 13:00N 14°36' W 061°04'0 0.0
2017-Nov-14 12:30N 14°36' W 061°04'0 0.0
2017-Nov-14 11:57N 14°36' W 061°04'0 0.1
2017-Nov-14 11:30N 14°36' W 061°04'1 2.7
2017-Nov-14 11:00N 14°35' W 061°05'4 8.6
2017-Nov-14 10:30N 14°32' W 061°09'4 8.8
2017-Nov-14 10:00N 14°28' W 061°07'5 9.3
2017-Nov-14 09:30N 14°25' W 061°04'5 9.2
2017-Nov-14 09:00N 14°22' W 061°01'5 9.2
2017-Nov-14 08:30N 14°18' W 060°57'5 9.5
2017-Nov-14 08:00N 14°15' W 060°54'5 9.8
2017-Nov-14 07:30N 14°12' W 060°50'38 1.2
2017-Nov-13 00:53N 13°35' W 060°56'26 3.3
2017-Nov-12 17:00N 14°01' W 060°60'0 0.1
2017-Nov-12 11:52N 14°01' W 060°60'3 8.8
2017-Nov-12 11:31N 14°03' W 061°03'714.5
2017-Nov-12 11:00N 14°09' W 061°06'714.9
2017-Nov-12 10:30N 14°15' W 061°10'815.1
2017-Nov-12 10:00N 14°22' W 061°14'815.0
2017-Nov-12 09:30N 14°28' W 061°18'815.4
2017-Nov-12 09:00N 14°35' W 061°22'815.2
2017-Nov-12 08:30N 14°42' W 061°26'14814.1
2017-Nov-11 22:01N 17°07' W 061°51'0 4.7
2017-Nov-11 22:00N 17°07' W 061°51'0 0.9
2017-Nov-11 21:29N 17°07' W 061°51'0 0.0
2017-Nov-11 20:59N 17°07' W 061°51'0 0.0
2017-Nov-11 20:29N 17°07' W 061°51'0 0.0
2017-Nov-11 19:59N 17°07' W 061°51'0 0.0
2017-Nov-11 19:29N 17°07' W 061°51'0 0.0
2017-Nov-11 18:59N 17°07' W 061°51'0 0.0
2017-Nov-11 18:29N 17°07' W 061°51'0 0.0
2017-Nov-11 17:59N 17°07' W 061°51'0 0.0
2017-Nov-11 17:29N 17°07' W 061°51'0 0.0
2017-Nov-11 16:59N 17°07' W 061°51'0 0.0
2017-Nov-11 16:23N 17°07' W 061°51'0 0.0
2017-Nov-11 15:59N 17°07' W 061°51'0 0.0
2017-Nov-11 15:29N 17°07' W 061°51'0 0.0
2017-Nov-11 14:59N 17°07' W 061°51'0 0.0
2017-Nov-11 14:29N 17°07' W 061°51'0 0.0
2017-Nov-11 13:59N 17°07' W 061°51'0 0.5
2017-Nov-11 13:30N 17°07' W 061°51'5 9.4
2017-Nov-11 13:00N 17°09' W 061°56'815.8
2017-Nov-11 12:30N 17°14' W 062°03'83618.6
2017-Nov-09 15:36N 24°40' W 074°40'218.6
2017-Nov-09 15:30N 24°41' W 074°42'918.6
2017-Nov-09 15:00N 24°45' W 074°51'1218.6
2017-Nov-09 14:23N 24°51' W 075°02'25018.3
2017-Nov-09 00:44N 26°08' W 079°26'416.1
2017-Nov-09 00:28N 26°08' W 079°31'919.0
2017-Nov-09 00:01N 26°08' W 079°41'918.8
2017-Nov-08 23:30N 26°07' W 079°51'918.4
2017-Nov-08 23:00N 26°06' W 080°01'510.0
2017-Nov-08 22:30N 26°06' W 080°07'0 0.7
2017-Nov-08 22:00N 26°05' W 080°07'0 0.0
2017-Nov-08 21:30N 26°05' W 080°07'0 0.0
2017-Nov-08 20:51N 26°05' W 080°07'0 0.0
2017-Nov-08 20:30N 26°05' W 080°07'0 0.0
2017-Nov-08 20:00N 26°05' W 080°07'0 0.0
2017-Nov-08 19:30N 26°05' W 080°07'0 0.0
2017-Nov-08 19:00N 26°05' W 080°07'0 0.0
2017-Nov-08 18:30N 26°05' W 080°07'0 0.0
2017-Nov-08 18:00N 26°05' W 080°07'0 0.0
2017-Nov-08 17:27N 26°05' W 080°07'0 0.0
2017-Nov-08 17:00N 26°05' W 080°07'0 0.0
2017-Nov-08 16:30N 26°05' W 080°07'0 0.0
2017-Nov-08 15:57N 26°05' W 080°07'0 0.0
2017-Nov-08 15:30N 26°05' W 080°07'0 0.0
2017-Nov-08 14:54N 26°05' W 080°07'0 0.0
2017-Nov-08 14:30N 26°05' W 080°07'0 0.0
2017-Nov-08 14:00N 26°05' W 080°07'0 0.0
2017-Nov-08 13:30N 26°05' W 080°07'0 0.0
2017-Nov-08 13:00N 26°05' W 080°07'0 0.0
2017-Nov-08 12:30N 26°05' W 080°07'0 0.0
2017-Nov-08 12:00N 26°05' W 080°07'0 0.0
2017-Nov-08 11:30N 26°05' W 080°07'1 2.6
2017-Nov-08 11:00N 26°06' W 080°06'611.4
2017-Nov-08 10:31N 26°05' W 079°59'1019.4
2017-Nov-08 10:00N 26°01' W 079°50'1019.7
2017-Nov-08 09:31N 25°56' W 079°40'1120.9
2017-Nov-08 09:00N 25°45' W 079°38'1020.9
2017-Nov-08 08:30N 25°35' W 079°36'1020.6
2017-Nov-08 08:00N 25°25' W 079°34'  

Dump ship's entire track history